createdAt,value
2022-10-18T00:01:00.334Z,2.43
2022-10-18T00:03:28.288Z,2.63
2022-10-18T00:05:56.174Z,2.23
2022-10-18T00:08:24.025Z,2.70
2022-10-18T00:10:53.373Z,2.33
2022-10-18T00:13:21.241Z,2.67
2022-10-18T00:15:50.739Z,2.40
2022-10-18T00:18:18.817Z,2.50
2022-10-18T00:20:47.192Z,2.67
2022-10-18T00:23:14.993Z,2.80
2022-10-18T00:25:42.802Z,2.87
2022-10-18T00:28:11.958Z,2.67
2022-10-18T00:30:39.819Z,2.07
2022-10-18T00:33:07.639Z,2.47
2022-10-18T00:35:36.057Z,2.80
2022-10-18T00:38:03.897Z,2.70
2022-10-18T00:40:31.713Z,2.77
2022-10-18T00:42:59.531Z,2.90
2022-10-18T00:45:28.832Z,2.53
2022-10-18T00:47:59.762Z,2.80
2022-10-18T00:50:31.458Z,2.83
2022-10-18T00:53:02.472Z,2.73
2022-10-18T00:55:32.754Z,3.07
2022-10-18T00:58:01.558Z,2.17
2022-10-18T01:00:30.927Z,2.80
2022-10-18T01:03:00.332Z,2.07
2022-10-18T01:05:28.682Z,2.40
2022-10-18T01:08:24.445Z,2.80
2022-10-18T01:11:02.689Z,2.60
2022-10-18T01:13:42.629Z,2.53
2022-10-18T01:16:21.192Z,2.77
2022-10-18T01:18:54.239Z,2.67
2022-10-18T01:21:32.304Z,2.17
2022-10-18T01:24:48.929Z,2.60
2022-10-18T01:27:32.891Z,2.30
2022-10-18T01:30:33.460Z,2.60
2022-10-18T01:33:06.205Z,2.27
2022-10-18T01:35:40.583Z,2.53
2022-10-18T01:38:13.894Z,2.87
2022-10-18T01:40:44.814Z,2.57
2022-10-18T01:43:15.526Z,2.70
2022-10-18T01:45:44.748Z,2.50
2022-10-18T01:48:13.982Z,2.47
2022-10-18T01:50:41.841Z,2.73
2022-10-18T01:53:23.154Z,3.00
2022-10-18T01:55:58.572Z,2.37
2022-10-18T01:58:31.856Z,2.60
2022-10-18T02:01:07.316Z,2.20
2022-10-18T02:03:38.288Z,2.43
2022-10-18T02:06:10.840Z,2.40
2022-10-18T02:08:43.963Z,2.47
2022-10-18T02:11:14.782Z,2.30
2022-10-18T02:13:44.506Z,2.60
2022-10-18T02:16:18.100Z,2.37
2022-10-18T02:18:51.111Z,2.27
2022-10-18T02:21:21.864Z,2.47
2022-10-18T02:23:50.088Z,2.47
2022-10-18T02:26:18.205Z,2.10
2022-10-18T02:28:46.800Z,2.93
2022-10-18T02:31:21.688Z,2.63
2022-10-18T02:33:54.142Z,2.40
2022-10-18T02:36:27.985Z,2.70
2022-10-18T02:39:00.149Z,2.67
2022-10-18T02:41:28.670Z,2.27
2022-10-18T02:43:56.543Z,2.10
2022-10-18T02:48:58.804Z,2.80
2022-10-18T02:51:26.610Z,2.50
2022-10-18T02:53:54.513Z,2.53
2022-10-18T02:56:22.340Z,2.90
2022-10-18T02:58:50.142Z,2.30
2022-10-18T03:01:18.002Z,2.37
2022-10-18T03:03:47.273Z,2.37
2022-10-18T03:06:15.096Z,1.93
2022-10-18T03:08:42.910Z,2.20
2022-10-18T03:11:10.929Z,2.97
2022-10-18T03:13:38.821Z,2.30
2022-10-18T03:16:07.057Z,2.30
2022-10-18T03:18:35.001Z,2.00
2022-10-18T03:21:06.993Z,2.10
2022-10-18T03:23:35.248Z,2.50
2022-10-18T03:26:03.068Z,2.87
2022-10-18T03:28:30.954Z,2.30
2022-10-18T03:31:02.141Z,2.30
2022-10-18T03:33:29.981Z,2.83
2022-10-18T03:35:57.839Z,2.20
2022-10-18T03:38:27.124Z,4.03
2022-10-18T03:40:54.934Z,3.40
2022-10-18T03:43:22.880Z,1.90
2022-10-18T03:45:50.749Z,2.00
2022-10-18T03:48:18.562Z,2.33
2022-10-18T03:50:46.349Z,2.07
2022-10-18T03:53:14.193Z,2.10
2022-10-18T03:55:43.596Z,2.30
2022-10-18T03:58:12.302Z,2.03
2022-10-18T04:00:40.104Z,2.10
2022-10-18T04:03:07.916Z,2.40
2022-10-18T04:05:36.582Z,2.13
2022-10-18T04:08:04.728Z,2.60
2022-10-18T04:10:32.524Z,2.00
2022-10-18T04:13:01.668Z,2.53
2022-10-18T04:15:29.493Z,2.83
2022-10-18T04:17:57.796Z,2.17
2022-10-18T04:20:25.960Z,2.07
2022-10-18T04:22:54.977Z,3.20
2022-10-18T04:25:23.218Z,2.47
2022-10-18T04:27:51.078Z,2.50
2022-10-18T04:30:20.330Z,2.40
2022-10-18T04:32:48.189Z,2.27
2022-10-18T04:35:16.172Z,2.27
2022-10-18T04:37:43.961Z,2.53
2022-10-18T04:40:12.883Z,2.63
2022-10-18T04:42:40.676Z,2.60
2022-10-18T04:45:09.504Z,2.20
2022-10-18T04:47:38.714Z,2.33
2022-10-18T04:50:07.219Z,2.43
2022-10-18T04:52:35.084Z,2.83
2022-10-18T04:55:02.913Z,2.47
2022-10-18T04:57:30.967Z,2.70
2022-10-18T04:59:58.991Z,2.10
2022-10-18T05:02:26.878Z,2.50
2022-10-18T05:04:56.025Z,2.77
2022-10-18T05:07:23.845Z,2.37
2022-10-18T05:09:51.629Z,2.50
2022-10-18T05:12:19.528Z,2.70
2022-10-18T05:14:47.325Z,2.57
2022-10-18T05:17:15.367Z,2.23
2022-10-18T05:19:43.166Z,2.83
2022-10-18T05:22:12.361Z,2.83
2022-10-18T05:24:40.164Z,2.50
2022-10-18T05:27:07.983Z,3.27
2022-10-18T05:29:35.786Z,2.40
2022-10-18T05:32:03.744Z,2.57
2022-10-18T05:34:31.971Z,3.47
2022-10-18T05:37:00.781Z,2.40
2022-10-18T05:39:29.981Z,2.37
2022-10-18T05:41:58.084Z,2.67
2022-10-18T05:44:25.889Z,2.70
2022-10-18T05:46:53.699Z,2.50
2022-10-18T05:49:21.723Z,2.70
2022-10-18T05:51:49.621Z,3.10
2022-10-18T05:54:17.693Z,3.00
2022-10-18T05:56:46.892Z,2.50
2022-10-18T05:59:14.874Z,2.80
2022-10-18T06:01:43.882Z,3.07
2022-10-18T06:04:11.822Z,3.07
2022-10-18T06:06:40.517Z,2.63
2022-10-18T06:09:09.353Z,2.80
2022-10-18T06:11:38.038Z,3.00
2022-10-18T06:14:09.276Z,2.73
2022-10-18T06:19:10.121Z,3.40
2022-10-18T06:21:37.925Z,3.13
2022-10-18T06:24:06.495Z,3.10
2022-10-18T06:26:34.317Z,2.97
2022-10-18T06:29:02.207Z,2.97
2022-10-18T06:31:31.585Z,3.00
2022-10-18T06:33:59.468Z,2.70
2022-10-18T06:36:27.445Z,3.10
2022-10-18T06:38:56.484Z,2.73
2022-10-18T06:41:24.654Z,2.83
2022-10-18T06:43:53.999Z,3.00
2022-10-18T06:46:21.786Z,2.37
2022-10-18T06:48:50.966Z,2.93
2022-10-18T06:51:19.545Z,2.80
2022-10-18T06:53:59.581Z,3.03
2022-10-18T06:56:35.224Z,2.87
2022-10-18T06:59:03.239Z,3.37
2022-10-18T07:01:31.172Z,3.03
2022-10-18T07:04:00.434Z,3.03
2022-10-18T07:06:28.327Z,2.20
2022-10-18T07:08:57.031Z,3.27
2022-10-18T07:11:26.617Z,2.77
2022-10-18T07:13:55.091Z,2.73
2022-10-18T07:16:23.239Z,2.90
2022-10-18T07:18:52.432Z,3.20
2022-10-18T07:21:23.665Z,2.80
2022-10-18T07:23:53.373Z,2.90
2022-10-18T07:26:23.760Z,2.57
2022-10-18T07:28:55.286Z,2.63
2022-10-18T07:31:23.706Z,2.60
2022-10-18T07:33:51.749Z,2.90
2022-10-18T07:36:22.177Z,2.50
2022-10-18T07:38:51.793Z,2.80
2022-10-18T07:41:20.070Z,2.53
2022-10-18T07:43:50.697Z,2.53
2022-10-18T07:46:19.253Z,3.33
2022-10-18T07:48:47.385Z,2.37
2022-10-18T07:51:15.633Z,2.63
2022-10-18T07:53:44.981Z,2.57
2022-10-18T07:56:16.896Z,2.80
2022-10-18T07:58:45.481Z,2.83
2022-10-18T08:01:14.316Z,3.03
2022-10-18T08:03:43.174Z,2.57
2022-10-18T08:06:12.334Z,2.30
2022-10-18T08:08:41.917Z,3.10
2022-10-18T08:11:13.556Z,2.30
2022-10-18T08:13:41.377Z,2.70
2022-10-18T08:16:11.035Z,2.67
2022-10-18T08:18:39.464Z,2.97
2022-10-18T08:21:09.116Z,2.70
2022-10-18T08:23:37.405Z,2.90
2022-10-18T08:26:06.764Z,2.63
2022-10-18T08:28:36.764Z,3.00
2022-10-18T08:31:05.644Z,2.87
2022-10-18T08:33:33.926Z,3.00
2022-10-18T08:36:02.913Z,2.67
2022-10-18T08:38:31.875Z,2.60
2022-10-18T08:41:01.407Z,2.40
2022-10-18T08:43:39.519Z,3.03
2022-10-18T08:46:09.381Z,2.70
2022-10-18T08:48:42.522Z,2.90
2022-10-18T08:51:19.310Z,2.77
2022-10-18T08:53:53.160Z,2.90
2022-10-18T08:56:24.119Z,3.50
2022-10-18T08:58:53.331Z,3.37
2022-10-18T09:01:34.337Z,3.03
2022-10-18T09:04:39.488Z,2.60
2022-10-18T09:07:24.070Z,2.97
2022-10-18T09:09:56.945Z,2.53
2022-10-18T09:12:44.290Z,3.63
2022-10-18T09:15:21.095Z,3.20
2022-10-18T09:18:08.649Z,3.83
2022-10-18T09:20:53.365Z,2.87
2022-10-18T09:23:22.969Z,3.20
2022-10-18T09:25:56.893Z,2.93
2022-10-18T09:28:37.300Z,2.97
2022-10-18T09:31:11.057Z,3.17
2022-10-18T09:33:53.708Z,3.37
2022-10-18T09:36:23.776Z,3.10
2022-10-18T09:38:57.238Z,3.50
2022-10-18T09:41:31.219Z,3.23
2022-10-18T09:44:02.658Z,3.10
2022-10-18T09:46:35.403Z,3.37
2022-10-18T09:49:06.840Z,2.70
2022-10-18T09:51:38.034Z,2.90
2022-10-18T09:54:17.856Z,3.17
2022-10-18T09:56:49.888Z,2.60
2022-10-18T09:59:32.581Z,3.10
2022-10-18T10:02:01.757Z,3.00
2022-10-18T10:04:29.791Z,2.67
2022-10-18T10:07:01.258Z,3.00
2022-10-18T10:09:30.946Z,3.40
2022-10-18T10:11:59.446Z,3.10
2022-10-18T10:14:30.330Z,2.70
2022-10-18T10:17:02.134Z,3.80
2022-10-18T10:19:33.586Z,3.17
2022-10-18T10:22:06.237Z,3.10
2022-10-18T10:24:47.965Z,2.63
2022-10-18T10:27:20.028Z,2.73
2022-10-18T10:30:01.557Z,3.37
2022-10-18T10:32:44.829Z,3.20
2022-10-18T10:35:35.259Z,3.27
2022-10-18T10:38:24.285Z,3.00
2022-10-18T10:40:52.289Z,3.00
2022-10-18T10:43:37.048Z,2.63
2022-10-18T10:46:09.697Z,3.30
2022-10-18T10:48:46.313Z,3.30
2022-10-18T10:51:19.211Z,3.20
2022-10-18T10:53:52.274Z,2.97
2022-10-18T10:56:25.040Z,3.37
2022-10-18T10:58:54.188Z,3.03
2022-10-18T11:01:26.168Z,3.20
2022-10-18T11:03:56.195Z,2.37
2022-10-18T11:06:38.910Z,2.60
2022-10-18T11:09:17.643Z,2.40
2022-10-18T11:11:56.232Z,2.87
2022-10-18T11:14:28.085Z,2.63
2022-10-18T11:17:06.939Z,2.50
2022-10-18T11:19:43.715Z,2.70
2022-10-18T11:22:17.505Z,2.60
2022-10-18T11:24:45.420Z,2.90
2022-10-18T11:27:20.444Z,2.73
2022-10-18T11:30:04.169Z,2.40
2022-10-18T11:32:41.733Z,2.85
2022-10-18T11:35:25.745Z,2.40
2022-10-18T11:38:12.212Z,2.47
2022-10-18T11:40:57.872Z,2.40
2022-10-18T11:43:50.510Z,3.20
2022-10-18T11:46:32.245Z,2.47
2022-10-18T11:49:20.456Z,2.50
2022-10-18T11:52:08.189Z,2.75
2022-10-18T11:54:55.948Z,2.97
2022-10-18T11:57:38.598Z,2.50
2022-10-18T12:00:18.702Z,2.90
2022-10-18T12:03:02.400Z,2.58
2022-10-18T12:05:31.925Z,2.80
2022-10-18T12:08:06.202Z,2.60
2022-10-18T12:10:46.196Z,2.58
2022-10-18T12:13:33.305Z,2.90
2022-10-18T12:16:03.546Z,2.90
2022-10-18T12:18:32.683Z,2.80
2022-10-18T12:21:01.847Z,2.90
2022-10-18T12:23:39.033Z,2.73
2022-10-18T12:26:10.993Z,2.57
2022-10-18T12:28:48.124Z,2.80
2022-10-18T12:31:23.307Z,3.40
2022-10-18T12:33:55.544Z,2.83
2022-10-18T12:36:42.220Z,2.87
2022-10-18T12:39:15.438Z,2.37
2022-10-18T12:41:48.481Z,3.07
2022-10-18T12:44:21.993Z,3.03
2022-10-18T12:46:52.261Z,2.80
2022-10-18T12:49:25.093Z,2.93
2022-10-18T12:51:54.984Z,3.03
2022-10-18T12:54:27.002Z,3.00
2022-10-18T12:56:56.438Z,3.10
2022-10-18T12:59:51.843Z,3.10
2022-10-18T13:02:31.949Z,3.10
2022-10-18T13:05:02.147Z,3.03
2022-10-18T13:07:43.093Z,3.77
2022-10-18T13:10:41.599Z,3.30
2022-10-18T13:13:40.241Z,3.33
2022-10-18T13:16:28.229Z,3.57
2022-10-18T13:18:59.460Z,3.37
2022-10-18T13:21:41.171Z,3.50
2022-10-18T13:24:26.615Z,2.93
2022-10-18T13:30:26.959Z,2.90
2022-10-18T13:32:59.694Z,2.97
2022-10-18T13:35:51.610Z,3.10
2022-10-18T13:38:40.261Z,3.27
2022-10-18T13:41:10.624Z,3.13
2022-10-18T13:44:19.315Z,4.67
2022-10-18T13:47:17.140Z,5.17
2022-10-18T13:50:32.314Z,10.67
2022-10-18T13:53:36.304Z,4.80
2022-10-18T13:56:37.725Z,2.93
2022-10-18T13:59:22.506Z,3.73
2022-10-18T14:02:05.101Z,3.27
2022-10-18T14:04:48.310Z,3.37
2022-10-18T14:07:19.061Z,2.03
2022-10-18T14:09:55.035Z,2.70
2022-10-18T14:12:31.815Z,2.77
2022-10-18T14:15:06.328Z,3.00
2022-10-18T14:17:40.928Z,3.10
2022-10-18T14:20:20.710Z,3.30
2022-10-18T14:22:54.222Z,2.90
2022-10-18T14:25:27.959Z,2.60
2022-10-18T14:28:12.902Z,2.77
2022-10-18T14:30:54.273Z,2.83
2022-10-18T14:33:31.167Z,2.70
2022-10-18T14:36:10.364Z,3.00
2022-10-18T14:38:49.116Z,2.60
2022-10-18T14:41:21.486Z,3.07
2022-10-18T14:43:49.957Z,5.10
2022-10-18T14:46:21.975Z,4.93
2022-10-18T14:48:57.326Z,4.57
2022-10-18T14:51:27.368Z,3.93
2022-10-18T14:53:55.723Z,6.50
2022-10-18T14:56:27.073Z,3.83
2022-10-18T14:58:56.071Z,2.97
2022-10-18T15:01:27.712Z,4.33
2022-10-18T15:03:58.072Z,4.53
2022-10-18T15:06:27.857Z,5.00
2022-10-18T15:08:58.113Z,6.07
2022-10-18T15:11:27.358Z,6.83
2022-10-18T15:13:57.590Z,5.37
2022-10-18T15:16:28.755Z,3.60
2022-10-18T15:19:01.948Z,4.50
2022-10-18T15:21:31.369Z,4.10
2022-10-18T15:24:20.999Z,3.03
2022-10-18T15:26:49.784Z,3.97
2022-10-18T15:29:20.438Z,4.07
2022-10-18T15:31:50.266Z,4.10
2022-10-18T15:34:21.172Z,4.40
2022-10-18T15:36:51.696Z,3.53
2022-10-18T15:39:21.261Z,3.53
2022-10-18T15:41:53.683Z,3.87
2022-10-18T15:44:27.833Z,3.40
2022-10-18T15:46:59.171Z,2.93
2022-10-18T15:49:56.224Z,3.50
2022-10-18T15:52:39.035Z,3.40
2022-10-18T15:55:56.264Z,2.80
2022-10-18T15:58:26.305Z,3.80
2022-10-18T16:00:57.076Z,3.53
2022-10-18T16:03:25.856Z,3.37
2022-10-18T16:05:59.565Z,3.10
2022-10-18T16:08:30.656Z,3.00
2022-10-18T16:10:58.779Z,3.30
2022-10-18T16:13:27.173Z,3.40
2022-10-18T16:15:56.564Z,3.70
2022-10-18T16:18:26.108Z,3.00
2022-10-18T16:20:54.384Z,2.90
2022-10-18T16:23:24.609Z,3.37
2022-10-18T16:25:53.964Z,3.40
2022-10-18T16:28:23.725Z,3.70
2022-10-18T16:30:57.660Z,3.20
2022-10-18T16:33:26.379Z,3.50
2022-10-18T16:35:54.767Z,3.70
2022-10-18T16:38:32.599Z,3.50
2022-10-18T16:41:05.124Z,3.07
2022-10-18T16:43:34.534Z,3.40
2022-10-18T16:46:03.503Z,3.60
2022-10-18T16:48:31.480Z,3.07
2022-10-18T16:50:59.649Z,3.80
2022-10-18T16:53:27.952Z,4.00
2022-10-18T16:55:58.010Z,3.50
2022-10-18T16:58:28.919Z,3.60
2022-10-18T17:00:57.381Z,4.30
2022-10-18T17:03:25.932Z,4.03
2022-10-18T17:05:54.265Z,3.50
2022-10-18T17:08:24.282Z,3.77
2022-10-18T17:10:54.172Z,3.87
2022-10-18T17:13:22.747Z,3.60
2022-10-18T17:15:52.768Z,4.67
2022-10-18T17:18:23.596Z,4.00
2022-10-18T17:20:51.539Z,4.30
2022-10-18T17:23:19.647Z,5.10
2022-10-18T17:25:59.078Z,4.50
2022-10-18T17:28:35.376Z,4.23
2022-10-18T17:31:07.554Z,4.37
2022-10-18T17:33:35.590Z,4.43
2022-10-18T17:36:03.393Z,3.97
2022-10-18T17:38:31.205Z,4.80
2022-10-18T17:40:59.020Z,4.47
2022-10-18T17:43:27.202Z,4.80
2022-10-18T17:45:56.724Z,4.00
2022-10-18T17:48:28.164Z,3.60
2022-10-18T17:50:56.108Z,4.57
2022-10-18T17:53:28.337Z,3.97
2022-10-18T17:56:02.447Z,4.03
2022-10-18T17:58:31.878Z,3.50
2022-10-18T18:01:08.531Z,3.67
2022-10-18T18:03:37.913Z,3.60
2022-10-18T18:06:17.760Z,3.70
2022-10-18T18:08:46.112Z,3.70
2022-10-18T18:11:14.057Z,3.83
2022-10-18T18:13:41.937Z,4.03
2022-10-18T18:16:18.362Z,4.33
2022-10-18T18:18:49.510Z,3.40
2022-10-18T18:21:17.572Z,3.40
2022-10-18T18:23:45.689Z,3.40
2022-10-18T18:26:13.776Z,3.37
2022-10-18T18:28:42.072Z,3.13
2022-10-18T18:31:11.784Z,3.40
2022-10-18T18:33:39.771Z,3.17
2022-10-18T18:36:10.107Z,3.07
2022-10-18T18:38:42.304Z,3.30
2022-10-18T18:41:12.373Z,3.23
2022-10-18T18:43:41.922Z,3.30
2022-10-18T18:46:10.373Z,3.47
2022-10-18T18:48:38.336Z,3.43
2022-10-18T18:51:10.047Z,3.73
2022-10-18T18:53:39.102Z,2.80
2022-10-18T18:56:09.060Z,3.33
2022-10-18T18:58:38.701Z,3.50
2022-10-18T19:01:09.052Z,3.73
2022-10-18T19:03:38.254Z,3.50
2022-10-18T19:06:09.015Z,3.70
2022-10-18T19:08:38.237Z,3.70
2022-10-18T19:11:09.149Z,3.20
2022-10-18T19:13:37.431Z,3.47
2022-10-18T19:16:27.404Z,2.80
2022-10-18T19:18:58.234Z,3.20
2022-10-18T19:21:29.853Z,2.80
2022-10-18T19:23:58.382Z,3.90
2022-10-18T19:26:29.940Z,4.30
2022-10-18T19:29:02.867Z,3.40
2022-10-18T19:31:30.810Z,4.60
2022-10-18T19:33:59.599Z,3.50
2022-10-18T19:36:29.941Z,3.50
2022-10-18T19:38:58.944Z,3.37
2022-10-18T19:41:28.361Z,3.20
2022-10-18T19:43:56.248Z,3.50
2022-10-18T19:46:24.723Z,3.50
2022-10-18T19:48:53.996Z,3.40
2022-10-18T19:51:25.510Z,3.30
2022-10-18T19:53:58.375Z,3.20
2022-10-18T19:56:27.787Z,3.37
2022-10-18T19:58:56.430Z,3.47
2022-10-18T20:01:25.011Z,3.20
2022-10-18T20:03:52.905Z,3.50
2022-10-18T20:06:20.774Z,3.43
2022-10-18T20:08:49.247Z,4.23
2022-10-18T20:11:20.832Z,4.17
2022-10-18T20:13:49.093Z,3.07
2022-10-18T20:16:19.056Z,3.37
2022-10-18T20:18:46.929Z,6.43
2022-10-18T20:21:16.735Z,3.30
2022-10-18T20:23:45.628Z,4.03
2022-10-18T20:26:18.105Z,4.13
2022-10-18T20:28:55.701Z,3.60
2022-10-18T20:31:25.179Z,3.50
2022-10-18T20:33:56.490Z,4.03
2022-10-18T20:36:24.957Z,3.37
2022-10-18T20:38:53.186Z,4.30
2022-10-18T20:41:22.464Z,3.67
2022-10-18T20:43:55.942Z,3.33
2022-10-18T20:46:24.069Z,3.20
2022-10-18T20:48:53.208Z,3.37
2022-10-18T20:51:22.450Z,4.10
2022-10-18T20:53:50.823Z,4.00
2022-10-18T20:56:21.002Z,3.70
2022-10-18T20:58:52.511Z,3.33
2022-10-18T21:01:23.623Z,4.17
2022-10-18T21:03:52.713Z,3.40
2022-10-18T21:06:23.333Z,3.60
2022-10-18T21:08:55.009Z,3.17
2022-10-18T21:11:23.505Z,3.53
2022-10-18T21:13:52.426Z,3.30
2022-10-18T21:16:21.813Z,3.40
2022-10-18T21:18:49.801Z,3.23
2022-10-18T21:21:19.358Z,3.10
2022-10-18T21:23:48.743Z,2.83
2022-10-18T21:26:18.806Z,3.33
2022-10-18T21:28:46.836Z,3.63
2022-10-18T21:31:17.299Z,3.57
2022-10-18T21:33:47.990Z,3.53
2022-10-18T21:36:16.119Z,3.90
2022-10-18T21:38:46.438Z,3.90
2022-10-18T21:41:15.630Z,4.83
2022-10-18T21:43:45.229Z,5.17
2022-10-18T21:46:14.850Z,4.43
2022-10-18T21:48:45.273Z,3.80
2022-10-18T21:51:15.740Z,3.80
2022-10-18T21:53:44.515Z,3.97
2022-10-18T21:56:13.984Z,3.27
2022-10-18T21:58:42.080Z,4.30
2022-10-18T22:01:11.192Z,3.00
2022-10-18T22:03:39.378Z,3.70
2022-10-18T22:06:12.762Z,4.20
2022-10-18T22:08:42.803Z,4.30
2022-10-18T22:11:11.265Z,3.40
2022-10-18T22:13:39.131Z,3.67
2022-10-18T22:16:08.890Z,4.10
2022-10-18T22:18:37.000Z,3.47
2022-10-18T22:21:07.824Z,3.97
2022-10-18T22:23:37.222Z,3.80
2022-10-18T22:26:08.649Z,3.20
2022-10-18T22:28:37.171Z,3.10
2022-10-18T22:31:05.280Z,4.10
2022-10-18T22:33:33.158Z,3.40
2022-10-18T22:36:00.975Z,3.50
2022-10-18T22:38:33.140Z,3.60
2022-10-18T22:41:06.629Z,3.67
2022-10-18T22:43:35.062Z,4.17
2022-10-18T22:46:03.548Z,3.33
2022-10-18T22:48:31.653Z,3.73
2022-10-18T22:50:59.735Z,3.80
2022-10-18T22:53:27.553Z,4.30
2022-10-18T22:55:55.476Z,3.37
2022-10-18T22:58:25.219Z,3.57
2022-10-18T23:01:00.360Z,3.37
2022-10-18T23:03:28.201Z,4.13
2022-10-18T23:05:56.384Z,4.20
2022-10-18T23:08:24.556Z,4.10
2022-10-18T23:10:54.585Z,3.33
2022-10-18T23:13:23.990Z,3.47
2022-10-18T23:15:52.302Z,3.83
2022-10-18T23:18:21.934Z,4.00
2022-10-18T23:20:49.719Z,3.70
2022-10-18T23:23:17.568Z,3.77
2022-10-18T23:25:46.828Z,2.93
2022-10-18T23:28:16.479Z,3.90
2022-10-18T23:30:45.677Z,3.77
2022-10-18T23:33:13.497Z,3.50
2022-10-18T23:35:41.300Z,3.73
2022-10-18T23:38:09.081Z,4.00
2022-10-18T23:40:36.880Z,3.83
2022-10-18T23:43:04.682Z,3.37
2022-10-18T23:45:32.470Z,3.47
2022-10-18T23:48:01.685Z,3.47
2022-10-18T23:50:29.484Z,3.50
2022-10-18T23:52:57.272Z,3.80
2022-10-18T23:55:25.088Z,4.73
2022-10-18T23:57:52.878Z,4.47
